Weather reports worldwide

Advertisment
Monks wood, United Kingdom (99078): temperature & dewpoint: 17.05.2018 02:00:00 - 23.05.2018 02:00:00 (BST)Monks wood, United Kingdom (99078): temperature -20cm & temperature -100cm: 17.05.2018 02:00:00 - 23.05.2018 02:00:00 (BST)Monks wood, United Kingdom (99078): wind speed: 17.05.2018 02:00:00 - 23.05.2018 02:00:00 (BST)Monks wood, United Kingdom (99078): wind direction: 17.05.2018 02:00:00 - 23.05.2018 02:00:00 (BST)Monks wood, United Kingdom (99078): precipitation: 17.05.2018 02:00:00 - 23.05.2018 02:00:00 (BST)
Date & Time tt [°C] td [°C] tt -20cm [°C] tt -100cm [°C] ff [km/h] ff [kn] dd rr [mm]
23.05.2018 02:00:00 9,9 7,8 - - 9 5 NNE 0,0
23.05.2018 01:00:00 9,9 7,8 - - 9 5 NNE 0,0
23.05.2018 00:00:00 10,0 7,9 - - 13 7 NNE 0,0
22.05.2018 23:00:00 10,1 8,3 - - 8 4 NNE 0,0
22.05.2018 22:00:00 9,9 8,1 - - 9 5 NNE 0,0
22.05.2018 21:00:00 11,1 8,2 - - 11 6 NNE 0,0
22.05.2018 20:00:00 13,2 8,6 - - 11 6 NE 0,0
22.05.2018 19:00:00 15,4 8,7 - - 13 7 NE 0,0
22.05.2018 18:00:00 16,7 9,0 - - 15 8 NE 0,0
22.05.2018 17:00:00 17,9 10,0 - - 16 9 NE 0,0
22.05.2018 16:00:00 19,0 10,4 - - 13 7 NE 0,0
22.05.2018 15:00:00 19,0 9,8 - - 13 7 NE 0,0
22.05.2018 14:00:00 18,7 9,6 - - 15 8 NNE 0,0
22.05.2018 13:00:00 18,8 10,1 - - 16 9 NE 0,0
22.05.2018 12:00:00 18,1 10,7 - - 15 8 NNE 0,0
22.05.2018 11:00:00 17,7 11,4 - - 13 7 NE 0,0
22.05.2018 10:00:00 15,8 11,7 14,9 12,7 11 6 NNE 0,0
22.05.2018 09:00:00 13,4 9,6 - - 9 5 NNE 0,0
22.05.2018 08:00:00 12,8 9,9 - - 8 4 NNE 0,0
22.05.2018 07:00:00 10,2 9,6 - - 5 3 N 0,0
22.05.2018 06:00:00 8,3 8,1 - - 4 2 N 0,0
22.05.2018 05:00:00 8,1 7,8 - - 4 2 NNE 0,0
22.05.2018 04:00:00 8,0 7,5 - - 2 1 N 0,0
22.05.2018 03:00:00 8,5 8,0 - - 2 1 N 0,0
22.05.2018 02:00:00 9,3 8,8 - - 4 2 NNE 0,0
22.05.2018 01:00:00 9,9 9,2 - - 4 2 NNE 0,0
22.05.2018 00:00:00 10,7 9,8 - - 5 3 NNE 0,0
21.05.2018 23:00:00 10,9 9,3 - - 4 2 NNE 0,0
21.05.2018 22:00:00 12,3 9,1 - - 5 3 NNE 0,0
21.05.2018 21:00:00 13,6 8,9 - - 5 3 NNE 0,0
21.05.2018 20:00:00 16,0 8,7 - - 8 4 NNE 0,0
21.05.2018 19:00:00 18,3 8,7 - - 9 5 NNE 0,0
21.05.2018 18:00:00 19,9 10,0 - - 11 6 NE 0,0
21.05.2018 17:00:00 19,1 11,4 - - 8 4 NNE 0,0
21.05.2018 16:00:00 20,0 11,5 - - 11 6 NE 0,0
21.05.2018 15:00:00 21,7 13,2 - - 8 4 N 0,0
21.05.2018 14:00:00 20,5 13,9 - - 8 4 NE 0,0
21.05.2018 13:00:00 19,5 12,4 - - 8 4 NE 0,0
21.05.2018 12:00:00 18,6 12,9 - - 9 5 NNE 0,0
21.05.2018 11:00:00 17,3 11,8 - - 11 6 NNE 0,0
21.05.2018 10:00:00 15,9 10,7 14,7 12,7 11 6 NNE 0,0
21.05.2018 09:00:00 14,3 11,3 - - 8 4 NNE 0,0
21.05.2018 08:00:00 10,8 10,8 - - 4 2 N 0,0
21.05.2018 07:00:00 8,6 8,6 - - 4 2 NE 0,0
21.05.2018 06:00:00 6,8 6,8 - - 2 1 NNE 0,0
21.05.2018 05:00:00 7,2 7,2 - - 4 2 N 0,0
21.05.2018 04:00:00 7,4 7,4 - - 4 2 NE 0,0
21.05.2018 03:00:00 6,1 5,8 - - 4 2 N 0,0
21.05.2018 02:00:00 6,2 5,6 - - 4 2 SE 0,0
21.05.2018 01:00:00 8,0 6,8 - - 4 2 SE 0,0
21.05.2018 00:00:00 10,5 8,5 - - 4 2 SSE 0,0
20.05.2018 23:00:00 12,9 10,1 - - 4 2 S 0,0
20.05.2018 22:00:00 13,9 9,9 - - 5 3 SSE 0,0
20.05.2018 21:00:00 14,7 9,4 - - 4 2 SE 0,0
20.05.2018 20:00:00 17,9 9,8 - - 4 2 ESE 0,0
20.05.2018 19:00:00 19,6 9,7 - - 5 3 ESE 0,0
20.05.2018 18:00:00 19,9 8,9 - - 5 3 SE 0,0
20.05.2018 17:00:00 20,3 8,8 - - 8 4 ESE 0,0
20.05.2018 16:00:00 20,2 9,1 - - 8 4 S 0,0
20.05.2018 15:00:00 19,9 9,8 - - 8 4 S 0,0
20.05.2018 14:00:00 19,1 9,1 - - 8 4 SSE 0,0
20.05.2018 13:00:00 18,6 10,8 - - 9 5 S 0,0
20.05.2018 12:00:00 17,5 10,3 - - 9 5 SSE 0,0
20.05.2018 11:00:00 16,9 11,0 - - 5 3 S 0,0
20.05.2018 10:00:00 15,0 10,9 14,2 12,7 5 3 SE 0,0
20.05.2018 09:00:00 12,8 10,0 - - 5 3 SSE 0,0
20.05.2018 08:00:00 11,4 10,0 - - 4 2 S 0,0
20.05.2018 07:00:00 8,7 8,7 - - 4 2 S 0,0
20.05.2018 06:00:00 5,3 4,9 - - 0 0 N 0,0
20.05.2018 05:00:00 6,4 6,0 - - 4 2 SSW 0,0
20.05.2018 04:00:00 7,4 6,6 - - 4 2 S 0,0
20.05.2018 03:00:00 8,2 7,2 - - 5 3 S 0,0
20.05.2018 02:00:00 8,9 7,5 - - 5 3 S 0,0
20.05.2018 01:00:00 9,8 7,9 - - 8 4 S 0,0
20.05.2018 00:00:00 11,0 8,5 - - 8 4 S 0,0
19.05.2018 23:00:00 11,8 9,6 - - 8 4 S 0,0
19.05.2018 22:00:00 10,2 6,7 - - 4 2 E 0,0
19.05.2018 21:00:00 11,6 6,6 - - 2 1 E 0,0
19.05.2018 20:00:00 15,4 5,1 - - 2 1 ESE 0,0
19.05.2018 19:00:00 19,0 4,1 - - 4 2 SE 0,0
19.05.2018 18:00:00 19,6 2,9 - - 4 2 E 0,0
19.05.2018 17:00:00 19,5 5,7 - - 5 3 W 0,0
19.05.2018 16:00:00 19,2 6,7 - - 5 3 E 0,0
19.05.2018 15:00:00 18,6 5,1 - - 5 3 NE 0,0
19.05.2018 14:00:00 18,3 5,2 - - 5 3 NNE 0,0
19.05.2018 13:00:00 17,5 5,8 - - 5 3 NNE 0,0
19.05.2018 12:00:00 16,3 7,5 - - 5 3 ENE 0,0
19.05.2018 11:00:00 15,2 7,4 - - 5 3 NE 0,0
19.05.2018 10:00:00 14,1 8,2 13,9 12,5 5 3 E 0,0
19.05.2018 09:00:00 11,8 7,4 - - 5 3 ENE 0,0
19.05.2018 08:00:00 9,5 9,2 - - 4 2 ENE 0,0
19.05.2018 07:00:00 6,2 6,1 - - 4 2 NNE 0,0
19.05.2018 06:00:00 3,2 3,1 - - 0 0 N 0,0
19.05.2018 05:00:00 2,3 2,0 - - 2 1 N 0,0
19.05.2018 04:00:00 2,6 2,2 - - 0 0 N 0,0
19.05.2018 03:00:00 3,2 2,8 - - 0 0 N 0,0
19.05.2018 02:00:00 4,3 3,8 - - 0 0 N 0,0
19.05.2018 01:00:00 5,3 4,9 - - 2 1 NNW 0,0
19.05.2018 00:00:00 5,9 4,6 - - 2 1 N 0,0
18.05.2018 23:00:00 8,5 5,9 - - 4 2 E 0,0
18.05.2018 22:00:00 10,4 6,6 - - 4 2 E 0,0
18.05.2018 21:00:00 12,0 7,0 - - 4 2 E 0,0
18.05.2018 20:00:00 13,3 7,2 - - 2 1 E 0,0
18.05.2018 19:00:00 15,9 6,1 - - 5 3 E 0,0
18.05.2018 18:00:00 16,1 5,3 - - 4 2 N 0,0
18.05.2018 17:00:00 16,1 6,0 - - 4 2 N 0,0
18.05.2018 16:00:00 15,6 4,5 - - 4 2 N 0,0
18.05.2018 15:00:00 15,2 3,9 - - 5 3 WNW 0,0
18.05.2018 14:00:00 15,1 5,2 - - 5 3 SW 0,0
18.05.2018 13:00:00 14,3 4,2 - - 5 3 N 0,0
18.05.2018 12:00:00 13,2 5,6 - - 4 2 NNE 0,0
18.05.2018 11:00:00 12,2 5,6 - - 5 3 ENE 0,0
18.05.2018 10:00:00 11,4 6,6 13,7 12,7 5 3 NW 0,0
18.05.2018 09:00:00 8,4 6,7 - - 4 2 NW 0,0
18.05.2018 08:00:00 6,5 6,5 - - 2 1 N 0,0
18.05.2018 07:00:00 5,1 5,1 - - 4 2 N 0,0
18.05.2018 06:00:00 2,3 2,2 - - 2 1 N 0,0
18.05.2018 05:00:00 1,2 1,0 - - 2 1 NNW 0,0
18.05.2018 04:00:00 2,1 1,9 - - 0 0 N 0,0
18.05.2018 03:00:00 2,7 2,6 - - 2 1 NNW 0,0
18.05.2018 02:00:00 1,5 1,2 - - 2 1 NW 0,0
18.05.2018 01:00:00 1,5 1,1 - - 0 0 N 0,0
18.05.2018 00:00:00 2,6 2,0 - - 2 1 NNW 0,0
17.05.2018 23:00:00 4,0 3,2 - - 2 1 NNE 0,0
17.05.2018 22:00:00 5,6 4,4 - - 4 2 NE 0,0
17.05.2018 21:00:00 7,6 4,7 - - 4 2 NE 0,0
17.05.2018 20:00:00 9,3 4,6 - - 9 5 NE 0,0
17.05.2018 19:00:00 11,5 5,0 - - 11 6 NE 0,0
17.05.2018 18:00:00 12,1 5,5 - - 9 5 NE 0,0
17.05.2018 17:00:00 12,9 5,2 - - 11 6 NE 0,0
17.05.2018 16:00:00 13,7 5,6 - - 11 6 NE 0,0
17.05.2018 15:00:00 13,8 5,4 - - 13 7 NE 0,0
17.05.2018 14:00:00 13,5 4,2 - - 11 6 NE 0,0
17.05.2018 13:00:00 12,2 3,8 - - 15 8 NNE 0,0
17.05.2018 12:00:00 12,3 4,9 - - 11 6 NNE 0,0
17.05.2018 11:00:00 11,9 5,7 - - 11 6 NNE 0,0
17.05.2018 10:00:00 10,4 5,5 13,9 12,5 11 6 NE 0,0
17.05.2018 09:00:00 9,5 5,5 - - 11 6 NNE 0,0
17.05.2018 08:00:00 8,5 5,5 - - 8 4 NNE 0,0
17.05.2018 07:00:00 5,7 4,8 - - 8 4 N 0,0
17.05.2018 06:00:00 4,3 4,0 - - 4 2 N 0,0
17.05.2018 05:00:00 3,9 3,4 - - 4 2 NNE 0,0
17.05.2018 04:00:00 4,5 3,6 - - 4 2 N 0,0
17.05.2018 03:00:00 5,2 4,3 - - 4 2 NNE 0,0
17.05.2018 02:00:00 5,7 4,3 - - 5 3 NNE 0,0

tt = temperature
td = dewpoint
tt -20cm = temperature -20cm
tt -100cm = temperature -100cm
ff = wind speed
dd = wind direction
rr = precipitation

Next stations